Time;durP1;ratioP1;P1;durP2;ratioP2;P2;SDS_P1;SDS_P2;PMS_P1;PMS_P2;Temp;Humidity;BMP_temperature;BMP_pressure;BME280_temperature;BME280_humidity;BME280_pressure;Samples;Min_cycle;Max_cycle;Signal;HPM_P1;HPM_P2
2022/08/08 00:02:14;;;;;;;12.32;6.43;;;;;;;15.09;76.60;102290.44;6217155;23;20001;-85
2022/08/08 00:04:48;;;;;;;11.38;6.53;;;;;;;15.11;77.18;102293.78;6216654;23;20082;-85
2022/08/08 00:07:45;;;;;;;12.57;6.67;;;;;;;15.07;75.73;102287.06;6190958;23;20012;-85
2022/08/08 00:10:21;;;;;;;10.45;6.95;;;;;;;15.03;77.45;102294.03;6165760;23;20004;-85
2022/08/08 00:13:16;;;;;;;10.45;6.55;;;;;;;15.00;76.48;102291.69;6190679;23;20008;-85
2022/08/08 00:16:00;;;;;;;10.93;6.68;;;;;;;14.94;77.17;102284.31;6217775;23;20001;-86
2022/08/08 00:18:35;;;;;;;13.48;6.60;;;;;;;14.85;77.61;102279.09;6189853;23;20063;-85
2022/08/08 00:21:03;;;;;;;10.17;6.70;;;;;;;14.81;78.97;102286.00;6217094;23;20051;-85
2022/08/08 00:23:43;;;;;;;10.60;7.22;;;;;;;14.83;78.66;102294.81;6190562;23;20088;-85
2022/08/08 00:26:13;;;;;;;11.15;7.05;;;;;;;14.71;79.50;102286.41;6190613;23;20074;-85
2022/08/08 00:28:48;;;;;;;10.48;6.60;;;;;;;14.71;79.01;102293.78;6190168;23;20091;-85
2022/08/08 00:31:30;;;;;;;10.85;7.40;;;;;;;14.66;79.12;102297.13;6216512;23;20067;-85
2022/08/08 00:37:11;;;;;;;13.20;7.38;;;;;;;14.61;79.65;102296.03;6216626;23;20042;-86
2022/08/08 00:40:00;;;;;;;14.90;7.57;;;;;;;14.60;78.97;102294.34;6190368;23;20426;-85
2022/08/08 00:42:54;;;;;;;10.10;7.50;;;;;;;14.54;77.94;102291.41;6190416;23;20092;-85
2022/08/08 00:45:41;;;;;;;10.82;7.68;;;;;;;14.52;78.32;102289.91;6190196;23;20063;-86
2022/08/08 00:48:45;;;;;;;12.77;7.70;;;;;;;14.52;79.24;102298.94;6190567;23;20009;-85
2022/08/08 00:51:55;;;;;;;11.68;7.40;;;;;;;14.52;79.51;102300.84;6189946;23;20009;-85
2022/08/08 00:54:57;;;;;;;11.45;7.07;;;;;;;14.47;79.76;102296.00;6066398;23;20010;-85
2022/08/08 00:57:52;;;;;;;10.45;7.32;;;;;;;14.45;80.72;102289.06;6042547;23;20017;-85
2022/08/08 01:00:23;;;;;;;18.45;7.22;;;;;;;14.32;80.41;102274.34;6193602;23;20075;-85
2022/08/08 01:03:22;;;;;;;11.00;7.77;;;;;;;14.36;79.89;102288.41;6190052;23;20013;-85
2022/08/08 01:06:20;;;;;;;14.60;8.07;;;;;;;14.35;79.58;102287.56;6189536;23;20012;-86
2022/08/08 01:09:00;;;;;;;11.32;7.50;;;;;;;14.32;81.61;102285.25;6189975;23;20012;-85
2022/08/08 01:11:53;;;;;;;10.70;7.82;;;;;;;14.32;81.98;102295.31;6216679;23;20005;-85
2022/08/08 01:14:44;;;;;;;11.82;8.63;;;;;;;14.28;82.47;102291.34;6190694;23;20013;-85
2022/08/08 01:17:29;;;;;;;15.77;8.53;;;;;;;14.26;82.06;102286.06;6190001;23;20021;-85
2022/08/08 01:20:26;;;;;;;13.50;8.00;;;;;;;14.24;81.22;102285.41;6216573;23;20015;-85
2022/08/08 01:23:06;;;;;;;14.90;8.98;;;;;;;14.20;81.46;102290.47;6189815;23;20012;-86
2022/08/08 01:26:09;;;;;;;14.05;8.35;;;;;;;14.18;81.47;102291.72;6190258;23;20015;-86
2022/08/08 01:29:04;;;;;;;10.18;7.47;;;;;;;14.13;83.22;102286.88;6189855;23;20091;-85
2022/08/08 01:31:45;;;;;;;14.03;8.13;;;;;;;14.09;82.97;102285.59;6189706;23;20407;-85
2022/08/08 01:34:47;;;;;;;12.05;8.70;;;;;;;14.06;82.34;102286.00;6215835;23;20060;-85
2022/08/08 01:37:40;;;;;;;13.77;9.07;;;;;;;14.04;83.58;102279.91;6189647;23;20060;-85
2022/08/08 01:40:09;;;;;;;10.73;8.45;;;;;;;14.03;83.40;102283.66;6190129;23;20008;-85
2022/08/08 01:42:56;;;;;;;13.82;8.77;;;;;;;14.03;82.78;102278.22;6189900;23;20042;-86
2022/08/08 01:45:36;;;;;;;14.10;9.10;;;;;;;13.98;83.62;102269.78;6189650;23;20111;-85
2022/08/08 01:48:16;;;;;;;12.25;8.60;;;;;;;13.99;83.01;102277.75;6215980;23;20031;-85
2022/08/08 01:51:04;;;;;;;13.07;9.02;;;;;;;13.93;83.06;102278.59;6189540;23;20015;-86
2022/08/08 01:53:42;;;;;;;11.52;8.68;;;;;;;13.92;84.47;102281.50;6216357;23;20083;-85
2022/08/08 01:56:36;;;;;;;13.77;9.20;;;;;;;13.90;83.58;102286.34;6189650;23;20020;-85
2022/08/08 01:59:33;;;;;;;17.73;10.67;;;;;;;13.86;84.02;102296.81;6215964;23;20362;-85
2022/08/08 02:02:02;;;;;;;13.23;9.52;;;;;;;13.85;84.93;102292.41;6189763;23;20055;-85
2022/08/08 02:05:05;;;;;;;14.35;9.35;;;;;;;13.82;84.26;102295.53;6188983;23;20052;-86
2022/08/08 02:08:04;;;;;;;14.95;9.60;;;;;;;13.76;84.35;102289.00;6189587;23;20028;-85
2022/08/08 02:11:00;;;;;;;17.13;9.93;;;;;;;13.77;84.36;102292.56;6215928;23;20000;-85
2022/08/08 02:13:30;;;;;;;19.20;9.57;;;;;;;13.73;85.74;102294.00;6216283;23;20001;-85
2022/08/08 02:16:17;;;;;;;15.70;9.80;;;;;;;13.68;85.90;102298.19;6215823;23;20000;-86
2022/08/08 02:18:55;;;;;;;18.48;10.30;;;;;;;13.62;86.00;102287.22;6216289;23;20056;-85
2022/08/08 02:24:28;;;;;;;17.27;9.77;;;;;;;13.58;85.77;102292.25;6217874;23;20139;-86
2022/08/08 02:27:02;;;;;;;15.00;9.83;;;;;;;13.57;85.91;102290.56;6217792;23;20008;-85
2022/08/08 02:29:37;;;;;;;15.52;10.63;;;;;;;13.53;86.14;102288.44;6191062;23;20015;-85
2022/08/08 02:32:19;;;;;;;17.30;10.02;;;;;;;13.48;86.89;102281.69;6191215;23;20091;-85
2022/08/08 02:35:02;;;;;;;16.77;9.88;;;;;;;13.50;86.41;102284.22;6191143;23;20442;-86
2022/08/08 02:38:18;;;;;;;12.57;9.52;;;;;;;13.52;85.94;102295.75;6191642;23;20009;-86
2022/08/08 02:41:24;;;;;;;16.20;10.30;;;;;;;13.49;86.26;102291.56;6043709;23;20074;-86
2022/08/08 02:44:11;;;;;;;19.35;9.63;;;;;;;13.45;85.74;102290.28;6191844;23;20427;-85
2022/08/08 02:46:55;;;;;;;18.65;9.52;;;;;;;13.42;87.04;102287.09;6191236;23;20004;-85
2022/08/08 02:49:32;;;;;;;20.63;10.85;;;;;;;13.40;87.47;102284.56;6191270;23;20012;-85
2022/08/08 02:52:35;;;;;;;20.25;10.05;;;;;;;13.38;86.34;102294.84;6191266;23;20074;-85
2022/08/08 02:55:19;;;;;;;16.57;10.07;;;;;;;13.25;87.52;102271.00;6191343;23;20011;-85
2022/08/08 02:58:22;;;;;;;19.75;10.25;;;;;;;13.29;87.28;102283.22;6190936;23;20019;-86
2022/08/08 03:01:08;;;;;;;17.13;10.30;;;;;;;13.26;88.79;102294.50;6191066;23;20005;-85
2022/08/08 03:03:43;;;;;;;14.63;10.30;;;;;;;13.26;88.10;102297.25;6190699;23;20008;-85
2022/08/08 03:06:41;;;;;;;15.68;10.27;;;;;;;13.19;87.60;102290.91;6190721;23;20422;-85
2022/08/08 03:09:44;;;;;;;16.60;10.70;;;;;;;13.21;87.20;102302.44;6191141;23;20005;-85
2022/08/08 03:12:21;;;;;;;16.33;10.45;;;;;;;13.19;88.13;102300.97;6190949;23;20032;-85
2022/08/08 03:14:55;;;;;;;15.45;10.10;;;;;;;13.10;88.49;102300.25;6217667;23;20059;-85
2022/08/08 03:17:36;;;;;;;19.75;11.10;;;;;;;13.13;88.90;102297.13;6190736;23;20039;-85
2022/08/08 03:20:05;;;;;;;20.85;11.13;;;;;;;13.08;88.83;102299.59;6166262;23;20088;-85
2022/08/08 03:22:33;;;;;;;18.00;10.77;;;;;;;13.05;89.24;102300.00;6190916;23;20430;-86
2022/08/08 03:25:05;;;;;;;17.40;10.95;;;;;;;13.03;89.78;102302.09;6190772;23;20008;-86
2022/08/08 03:27:48;;;;;;;20.02;11.70;;;;;;;12.99;90.08;102298.88;6166460;23;20008;-85
2022/08/08 03:30:14;;;;;;;18.88;11.23;;;;;;;13.00;90.54;102306.03;6190852;23;20015;-86
2022/08/08 03:35:26;;;;;;;20.17;11.07;;;;;;;12.95;90.68;102311.25;6217061;23;20027;-86
2022/08/08 03:37:51;;;;;;;19.15;10.98;;;;;;;12.88;90.30;102296.72;6141380;23;20316;-86
2022/08/08 03:40:21;;;;;;;24.50;11.40;;;;;;;12.87;90.47;102297.75;6190737;23;20016;-86
2022/08/08 03:42:50;;;;;;;23.17;11.47;;;;;;;12.86;90.16;102304.22;6216912;23;20012;-86
2022/08/08 03:45:21;;;;;;;19.05;10.48;;;;;;;12.86;90.73;102315.13;6190520;23;20005;-85
2022/08/08 03:48:09;;;;;;;20.05;11.77;;;;;;;12.80;90.49;102309.44;6191000;23;20005;-85
2022/08/08 03:50:39;;;;;;;18.83;10.98;;;;;;;12.75;91.14;102308.31;6190875;23;20032;-85
2022/08/08 03:53:07;;;;;;;19.45;11.68;;;;;;;12.75;91.66;102314.59;6190784;23;20004;-85
2022/08/08 03:55:40;;;;;;;18.40;11.73;;;;;;;12.64;92.24;102299.63;6190891;23;20008;-85
2022/08/08 03:58:07;;;;;;;20.35;11.85;;;;;;;12.67;92.04;102308.44;6217088;23;20078;-85
2022/08/08 04:00:33;;;;;;;19.20;11.95;;;;;;;12.66;91.94;102315.75;6190128;23;20088;-85
2022/08/08 04:03:04;;;;;;;21.15;12.30;;;;;;;12.65;91.49;102319.50;6165662;23;20407;-85
2022/08/08 04:05:36;;;;;;;17.77;11.60;;;;;;;12.64;92.25;102312.41;6216474;23;20079;-88
2022/08/08 04:08:08;;;;;;;17.20;11.63;;;;;;;12.67;92.44;102322.91;6190444;23;20020;-85
2022/08/08 04:10:35;;;;;;;18.45;11.05;;;;;;;12.65;91.73;102322.25;6216781;23;20518;-85
2022/08/08 04:13:01;;;;;;;18.20;11.45;;;;;;;12.65;91.92;102327.69;6216452;23;20427;-85
2022/08/08 04:15:27;;;;;;;17.73;11.43;;;;;;;12.66;92.11;102326.66;6190360;23;20001;-85
2022/08/08 04:17:53;;;;;;;19.60;12.17;;;;;;;12.70;92.34;102325.25;6216835;23;20023;-85
2022/08/08 04:20:21;;;;;;;19.30;12.23;;;;;;;12.69;92.26;102326.28;6216639;23;20338;-86
2022/08/08 04:22:46;;;;;;;18.90;11.75;;;;;;;12.69;92.67;102315.38;6141823;23;20368;-86
2022/08/08 04:25:11;;;;;;;22.33;11.50;;;;;;;12.72;92.38;102312.25;6190454;23;20067;-86
2022/08/08 04:27:37;;;;;;;19.20;12.10;;;;;;;12.82;92.92;102331.84;6216848;23;20360;-86
2022/08/08 04:30:05;;;;;;;19.38;12.07;;;;;;;12.82;92.88;102334.56;6165427;23;20012;-86
2022/08/08 04:32:31;;;;;;;19.90;11.68;;;;;;;12.78;93.15;102318.81;6190229;23;20425;-86
2022/08/08 04:34:56;;;;;;;16.47;11.57;;;;;;;12.80;92.67;102324.94;6216413;23;20083;-86
2022/08/08 04:37:22;;;;;;;17.37;11.77;;;;;;;12.86;92.97;102332.31;6190203;23;20236;-86
2022/08/08 04:39:47;;;;;;;17.50;11.93;;;;;;;12.88;92.96;102326.69;6190345;23;20008;-86
2022/08/08 04:42:15;;;;;;;19.47;12.17;;;;;;;12.95;93.47;102344.75;6189950;23;20075;-86
2022/08/08 04:44:40;;;;;;;19.60;12.25;;;;;;;12.90;93.88;102339.06;6165541;23;20013;-86
2022/08/08 04:47:06;;;;;;;17.37;11.67;;;;;;;12.99;93.78;102354.25;6165241;23;20379;-86
2022/08/08 04:49:32;;;;;;;19.73;12.52;;;;;;;12.95;93.92;102349.38;6189935;23;20047;-86
2022/08/08 04:51:58;;;;;;;18.90;12.53;;;;;;;13.00;93.56;102355.06;6216627;23;20083;-86
2022/08/08 04:54:23;;;;;;;20.90;12.77;;;;;;;13.07;92.82;102357.88;6140442;23;20044;-86
2022/08/08 04:56:49;;;;;;;19.27;12.25;;;;;;;13.04;92.58;102356.38;6190077;23;20078;-86
2022/08/08 04:59:14;;;;;;;22.13;12.80;;;;;;;13.13;92.39;102366.09;6216409;23;20054;-86
2022/08/08 05:01:43;;;;;;;18.00;12.30;;;;;;;13.13;92.75;102359.81;6190093;23;20031;-86
2022/08/08 05:04:11;;;;;;;19.60;11.68;;;;;;;13.19;92.77;102355.47;6189444;23;20023;-86
2022/08/08 05:06:36;;;;;;;20.05;12.10;;;;;;;13.28;92.28;102368.75;6189952;23;20430;-86
2022/08/08 05:09:03;;;;;;;20.30;11.73;;;;;;;13.27;92.22;102363.50;6189696;23;20048;-86
2022/08/08 05:11:29;;;;;;;25.67;12.60;;;;;;;13.30;91.35;102361.22;6216445;23;20009;-86
2022/08/08 05:13:55;;;;;;;19.85;12.38;;;;;;;13.39;91.83;102358.38;6215903;23;20023;-86
2022/08/08 05:16:21;;;;;;;20.40;12.37;;;;;;;13.40;91.69;102360.06;6216187;23;20001;-86
2022/08/08 05:18:47;;;;;;;20.63;11.98;;;;;;;13.44;91.30;102370.38;6189656;23;20013;-86
2022/08/08 05:21:12;;;;;;;23.88;11.88;;;;;;;13.49;91.18;102373.38;6189832;23;20004;-86
2022/08/08 05:23:41;;;;;;;22.50;12.10;;;;;;;13.53;90.95;102376.53;6189982;23;20015;-88
2022/08/08 05:26:33;;;;;;;23.02;12.13;;;;;;;13.57;90.91;102371.50;6216346;23;20087;-92
2022/08/08 05:29:02;;;;;;;17.40;11.57;;;;;;;13.67;90.99;102377.47;6189719;23;20008;-91
2022/08/08 05:31:32;;;;;;;18.50;11.80;;;;;;;13.73;90.55;102373.97;6216209;23;20000;-91
2022/08/08 05:34:12;;;;;;;21.43;11.33;;;;;;;13.79;90.69;102367.72;6189575;23;20009;-91
2022/08/08 05:36:40;;;;;;;23.88;11.70;;;;;;;13.85;91.46;102366.06;6189816;23;20588;-93
2022/08/08 05:39:08;;;;;;;16.15;11.20;;;;;;;13.99;91.02;102380.63;6189601;23;20008;-88
2022/08/08 05:41:35;;;;;;;42.75;12.50;;;;;;;14.04;90.67;102370.78;6189551;23;20009;-89
2022/08/08 05:44:28;;;;;;;25.67;11.00;;;;;;;14.16;89.63;102383.88;6189146;23;20010;-87
2022/08/08 05:46:57;;;;;;;21.07;11.13;;;;;;;14.18;89.93;102374.44;6183854;23;20048;-89
2022/08/08 05:49:23;;;;;;;19.42;11.07;;;;;;;14.25;90.49;102374.47;6189469;23;20009;-88
2022/08/08 05:52:25;;;;;;;24.42;11.10;;;;;;;14.33;89.36;102374.28;6189537;23;20334;-90
2022/08/08 05:55:15;;;;;;;;;;;;;;;;;;;;;
2022/08/08 05:57:44;;;;;;;14.73;10.18;;;;;;;14.59;89.03;102386.38;6172349;23;20103;-89
2022/08/08 06:00:10;;;;;;;16.53;9.90;;;;;;;14.64;89.35;102383.06;6215726;23;20009;-88
2022/08/08 06:05:31;;;;;;;13.57;9.00;;;;;;;14.85;88.70;102387.53;6215662;23;20538;-88
2022/08/08 06:07:57;;;;;;;14.30;9.63;;;;;;;14.94;88.86;102385.44;6165964;23;20059;-86
2022/08/08 06:10:24;;;;;;;18.27;10.00;;;;;;;15.01;88.23;102389.03;6189032;23;20044;-86
2022/08/08 06:12:55;;;;;;;13.80;8.80;;;;;;;15.11;87.75;102385.91;6189355;23;20000;-87
2022/08/08 06:15:21;;;;;;;13.98;9.18;;;;;;;15.17;87.57;102388.63;6190035;23;20016;-87
2022/08/08 06:17:52;;;;;;;13.40;9.30;;;;;;;15.23;87.07;102382.31;6188985;23;20012;-87
2022/08/08 06:20:17;;;;;;;13.18;8.85;;;;;;;15.38;86.92;102394.94;6164993;23;20009;-86
2022/08/08 06:22:53;;;;;;;12.40;8.87;;;;;;;15.47;86.39;102403.78;6189685;23;20030;-87
2022/08/08 06:25:18;;;;;;;17.13;9.50;;;;;;;15.49;85.75;102393.50;6189342;23;20023;-87
2022/08/08 06:27:52;;;;;;;12.80;9.07;;;;;;;15.60;86.40;102404.66;6189619;23;20095;-86
2022/08/08 06:30:21;;;;;;;15.85;9.32;;;;;;;15.64;85.96;102402.31;6216520;23;20008;-86
2022/08/08 06:32:51;;;;;;;17.98;9.48;;;;;;;15.78;85.61;102409.50;6189201;23;20012;-86
2022/08/08 06:35:19;;;;;;;14.43;8.95;;;;;;;15.80;84.79;102409.28;6188864;23;20005;-87
2022/08/08 06:37:52;;;;;;;20.63;9.53;;;;;;;15.98;84.95;102419.56;6189228;23;20024;-87
2022/08/08 06:40:19;;;;;;;21.05;8.60;;;;;;;16.03;83.49;102411.53;6189268;23;20015;-86
2022/08/08 06:43:02;;;;;;;16.98;9.07;;;;;;;16.09;83.02;102415.31;6189365;23;20013;-86
2022/08/08 06:45:36;;;;;;;16.23;8.88;;;;;;;16.17;82.53;102406.91;6189205;23;20059;-88
2022/08/08 06:48:03;;;;;;;15.82;8.60;;;;;;;16.25;82.21;102411.28;6189327;23;20008;-87
2022/08/08 06:50:32;;;;;;;11.70;8.13;;;;;;;16.37;82.10;102409.59;6189232;23;20445;-87
2022/08/08 06:53:21;;;;;;;17.15;8.05;;;;;;;16.52;81.86;102420.28;6188793;23;20015;-87
2022/08/08 06:56:07;;;;;;;10.40;7.13;;;;;;;16.58;80.97;102413.06;6189322;23;20047;-87
2022/08/08 06:58:39;;;;;;;9.90;7.30;;;;;;;16.71;80.18;102421.25;6164833;23;20015;-87
2022/08/08 07:01:17;;;;;;;9.25;6.82;;;;;;;16.80;79.88;102421.81;6189523;23;20415;-87
2022/08/08 07:03:59;;;;;;;17.30;7.30;;;;;;;16.82;80.18;102422.44;6189444;23;20032;-87
2022/08/08 07:07:17;;;;;;;;;;;;;;;;;;;;;
2022/08/08 07:10:00;;;;;;;16.17;7.97;;;;;;;16.98;79.56;102429.34;6217023;23;20087;-81
2022/08/08 07:12:42;;;;;;;11.80;7.93;;;;;;;17.07;79.36;102433.50;6191332;23;20015;-80
2022/08/08 07:15:10;;;;;;;15.73;7.30;;;;;;;17.12;78.98;102430.09;6217273;23;20082;-81
2022/08/08 07:17:49;;;;;;;13.77;7.00;;;;;;;17.23;78.49;102436.78;6217530;23;20012;-81
2022/08/08 07:20:28;;;;;;;8.80;6.18;;;;;;;17.35;77.72;102444.06;6217367;23;20016;-81
2022/08/08 07:23:17;;;;;;;10.93;6.18;;;;;;;17.44;76.92;102432.84;6218014;23;20008;-81
2022/08/08 07:25:45;;;;;;;11.23;6.15;;;;;;;17.56;76.54;102442.00;6190493;23;20013;-82
2022/08/08 07:28:23;;;;;;;12.13;5.70;;;;;;;17.68;75.85;102440.22;6190694;23;20470;-84
2022/08/08 07:30:50;;;;;;;11.57;5.63;;;;;;;18.02;73.38;102435.28;6191825;23;20032;-85
2022/08/08 07:33:18;;;;;;;11.27;5.15;;;;;;;18.23;72.32;102446.91;6190106;23;20039;-84
2022/08/08 07:35:46;;;;;;;10.35;5.00;;;;;;;18.31;70.88;102434.78;6216897;23;20016;-84
2022/08/08 07:38:14;;;;;;;9.10;4.53;;;;;;;18.43;71.15;102438.44;6190782;23;20008;-84
2022/08/08 07:40:40;;;;;;;14.45;4.95;;;;;;;18.50;70.62;102432.84;6189973;23;20338;-84
2022/08/08 07:43:15;;;;;;;13.57;5.03;;;;;;;18.60;70.04;102438.63;6190927;23;20465;-83
2022/08/08 07:45:51;;;;;;;13.75;4.03;;;;;;;18.70;69.00;102433.44;6193364;23;20009;-86
2022/08/08 07:48:17;;;;;;;8.85;3.50;;;;;;;18.76;68.74;102435.28;6190890;23;20422;-83
2022/08/08 07:50:45;;;;;;;7.72;3.70;;;;;;;18.81;68.28;102436.47;6189908;23;20066;-85
2022/08/08 07:53:35;;;;;;;8.43;3.60;;;;;;;18.85;69.17;102440.44;6190463;23;20011;-85
2022/08/08 07:56:01;;;;;;;6.60;3.47;;;;;;;18.87;68.41;102441.09;6191005;23;20423;-84
2022/08/08 07:58:44;;;;;;;12.00;4.25;;;;;;;18.91;68.55;102445.03;6190499;23;20019;-83
2022/08/08 08:01:19;;;;;;;8.20;3.80;;;;;;;18.95;68.11;102449.00;6190458;23;20087;-84
2022/08/08 08:04:01;;;;;;;6.60;3.40;;;;;;;18.98;67.71;102454.03;6190568;23;20004;-84
2022/08/08 08:06:27;;;;;;;8.25;3.58;;;;;;;19.00;67.29;102451.06;6189880;23;20008;-84
2022/08/08 08:09:07;;;;;;;5.37;2.90;;;;;;;19.09;67.68;102452.44;6190278;23;20020;-84
2022/08/08 08:11:38;;;;;;;6.38;3.33;;;;;;;19.12;65.68;102457.47;6190379;23;20088;-84
2022/08/08 08:14:07;;;;;;;8.10;3.42;;;;;;;19.17;65.62;102457.59;6191450;23;20095;-84
2022/08/08 08:16:34;;;;;;;7.68;2.95;;;;;;;19.20;65.62;102456.28;6165285;23;20019;-84
2022/08/08 08:19:02;;;;;;;8.33;2.90;;;;;;;19.26;66.35;102456.16;6190110;23;20012;-84
2022/08/08 08:21:43;;;;;;;8.23;3.05;;;;;;;19.30;66.00;102456.56;6165660;23;20087;-84
2022/08/08 08:24:09;;;;;;;7.57;3.55;;;;;;;19.37;64.85;102457.28;6189958;23;20078;-84
2022/08/08 08:26:38;;;;;;;9.77;3.10;;;;;;;19.41;64.88;102454.91;6190173;23;20087;-83
2022/08/08 08:29:04;;;;;;;6.07;2.85;;;;;;;19.45;64.23;102465.19;6189672;23;20434;-84
2022/08/08 08:31:30;;;;;;;5.93;3.47;;;;;;;19.45;64.50;102467.94;6190507;23;20020;-85
2022/08/08 08:33:56;;;;;;;6.72;2.90;;;;;;;19.50;63.74;102461.72;6189955;23;20131;-84
2022/08/08 08:36:23;;;;;;;8.90;2.72;;;;;;;19.53;63.71;102466.78;6190477;23;20004;-85
2022/08/08 08:38:48;;;;;;;6.00;2.97;;;;;;;19.52;63.93;102456.84;6165508;23;20013;-85
2022/08/08 08:41:16;;;;;;;6.72;2.78;;;;;;;19.56;63.80;102470.97;6190162;23;20012;-84
2022/08/08 08:43:42;;;;;;;9.90;2.90;;;;;;;19.64;63.45;102465.94;6189992;23;20005;-86
2022/08/08 08:46:10;;;;;;;9.70;2.65;;;;;;;19.66;62.74;102468.47;6190487;23;20311;-83
2022/08/08 08:48:36;;;;;;;8.40;2.95;;;;;;;19.68;62.58;102471.84;6165503;23;20087;-84
2022/08/08 08:51:03;;;;;;;5.78;2.75;;;;;;;19.67;62.46;102464.63;6164557;23;20032;-85
2022/08/08 08:53:40;;;;;;;7.93;2.80;;;;;;;19.72;62.83;102470.25;6216607;23;20012;-83
2022/08/08 08:56:07;;;;;;;4.70;2.53;;;;;;;19.71;61.40;102476.88;6217401;23;20004;-83
2022/08/08 08:58:46;;;;;;;5.75;2.53;;;;;;;19.77;60.63;102475.09;6190373;23;20015;-83
2022/08/08 09:01:17;;;;;;;5.45;2.40;;;;;;;19.85;61.44;102476.66;6216308;23;20000;-84
2022/08/08 09:03:46;;;;;;;4.95;2.40;;;;;;;19.91;61.93;102479.28;6190253;23;20012;-83
2022/08/08 09:06:39;;;;;;;6.27;2.40;;;;;;;19.95;60.61;102471.41;6216761;23;20012;-83
2022/08/08 09:09:08;;;;;;;5.90;2.20;;;;;;;20.06;60.06;102470.53;6196344;23;20075;-83
2022/08/08 09:11:35;;;;;;;5.70;2.50;;;;;;;20.07;59.69;102471.41;6189727;23;20037;-83
2022/08/08 09:14:02;;;;;;;6.13;2.30;;;;;;;20.15;60.12;102477.41;6164712;23;20012;-83
2022/08/08 09:16:30;;;;;;;7.15;2.30;;;;;;;20.27;59.97;102476.53;6189474;23;20007;-83
2022/08/08 09:18:57;;;;;;;3.43;2.07;;;;;;;20.36;59.05;102474.25;6217016;23;20016;-84
2022/08/08 09:21:23;;;;;;;5.82;2.40;;;;;;;20.44;57.88;102471.94;6164543;23;20055;-83
2022/08/08 09:23:49;;;;;;;5.13;2.13;;;;;;;20.53;58.12;102472.41;6189427;23;20018;-84
2022/08/08 09:26:44;;;;;;;3.92;2.10;;;;;;;20.63;58.08;102469.88;6165071;23;20012;-83
2022/08/08 09:29:21;;;;;;;7.27;1.80;;;;;;;20.74;57.46;102481.97;6189470;23;20001;-84
2022/08/08 09:32:15;;;;;;;7.25;2.00;;;;;;;20.82;57.02;102481.59;6216326;23;20055;-83
2022/08/08 09:34:48;;;;;;;5.30;2.03;;;;;;;20.82;57.10;102481.59;6185613;23;20059;-84
2022/08/08 09:37:17;;;;;;;6.78;1.95;;;;;;;20.85;57.12;102474.75;6190049;23;20011;-84
2022/08/08 09:40:01;;;;;;;3.75;2.13;;;;;;;20.98;56.93;102465.38;6189543;23;20012;-84
2022/08/08 09:42:38;;;;;;;3.33;2.20;;;;;;;21.19;56.78;102472.09;6189809;23;20055;-83
2022/08/08 09:45:08;;;;;;;5.15;2.10;;;;;;;21.43;56.35;102472.78;6189326;23;20044;-83
2022/08/08 09:47:39;;;;;;;5.32;2.38;;;;;;;21.58;55.92;102474.19;6189556;23;20008;-83
2022/08/08 09:50:15;;;;;;;3.35;1.90;;;;;;;21.70;54.97;102469.41;6216276;23;20040;-84
2022/08/08 09:52:51;;;;;;;2.60;1.98;;;;;;;21.80;54.51;102477.03;6189847;23;20011;-83
2022/08/08 09:55:24;;;;;;;4.47;2.17;;;;;;;21.98;54.87;102470.38;6215729;23;20036;-84
2022/08/08 09:58:15;;;;;;;5.07;2.00;;;;;;;22.23;54.94;102468.00;6215890;23;20080;-83
2022/08/08 10:00:46;;;;;;;2.30;1.58;;;;;;;22.71;52.91;102462.00;6188701;23;20019;-84
2022/08/08 10:03:18;;;;;;;3.13;1.70;;;;;;;23.33;51.18;102462.69;6190070;23;20024;-84
2022/08/08 10:05:46;;;;;;;4.90;1.95;;;;;;;23.61;49.87;102464.31;6216079;23;20004;-83
2022/08/08 10:08:11;;;;;;;3.67;1.80;;;;;;;23.65;48.66;102466.28;6189529;23;20012;-84
2022/08/08 10:10:38;;;;;;;4.63;1.98;;;;;;;23.76;48.95;102474.69;6189599;23;20422;-83
2022/08/08 10:13:17;;;;;;;6.25;2.15;;;;;;;23.96;49.09;102482.31;6215650;23;20005;-84
2022/08/08 10:15:51;;;;;;;7.27;2.20;;;;;;;24.01;48.37;102474.06;6216021;23;20004;-85
2022/08/08 10:18:43;;;;;;;6.78;2.10;;;;;;;24.30;48.56;102466.19;6189410;23;20016;-84
2022/08/08 10:21:11;;;;;;;2.38;1.60;;;;;;;24.53;47.62;102467.66;6158138;23;20023;-84
2022/08/08 10:23:48;;;;;;;3.90;1.85;;;;;;;24.72;46.71;102458.91;6216417;23;20004;-84
2022/08/08 10:26:39;;;;;;;4.18;1.80;;;;;;;25.07;45.44;102467.59;6216094;23;20015;-84
2022/08/08 10:29:08;;;;;;;3.70;1.80;;;;;;;25.46;43.82;102461.56;6192645;23;20427;-84
2022/08/08 10:34:21;;;;;;;4.45;2.00;;;;;;;25.66;43.71;102460.69;6215884;23;20019;-84
2022/08/08 10:36:48;;;;;;;5.03;2.28;;;;;;;25.55;43.17;102457.94;6190281;23;20087;-84
2022/08/08 10:39:20;;;;;;;5.22;2.22;;;;;;;25.66;43.28;102463.47;6189855;23;20044;-83
2022/08/08 10:41:54;;;;;;;2.83;1.90;;;;;;;25.98;43.41;102452.03;6216918;23;20020;-83
2022/08/08 10:44:37;;;;;;;2.95;1.95;;;;;;;25.74;42.06;102460.16;6192293;23;20012;-84
2022/08/08 10:47:10;;;;;;;6.38;2.00;;;;;;;25.86;42.05;102459.84;6191996;23;20009;-83
2022/08/08 10:49:36;;;;;;;2.97;1.70;;;;;;;26.14;41.17;102452.03;6191416;23;20059;-84
2022/08/08 10:52:02;;;;;;;3.22;1.75;;;;;;;26.13;40.95;102455.94;6141499;23;20009;-84
2022/08/08 10:54:27;;;;;;;4.80;1.83;;;;;;;26.30;40.41;102456.44;6190887;23;20063;-84
2022/08/08 10:56:58;;;;;;;3.30;2.03;;;;;;;26.34;40.79;102459.47;6166940;23;20012;-84
2022/08/08 10:59:27;;;;;;;2.55;1.90;;;;;;;26.49;39.94;102461.38;6190840;23;20008;-84
2022/08/08 11:02:03;;;;;;;3.33;2.08;;;;;;;27.00;39.29;102449.16;6191533;23;20079;-87
2022/08/08 11:04:28;;;;;;;5.00;1.80;;;;;;;27.58;37.90;102448.44;6217475;23;20005;-85
2022/08/08 11:07:00;;;;;;;3.20;1.83;;;;;;;28.22;37.12;102451.19;6190175;23;20076;-86
2022/08/08 11:09:26;;;;;;;3.80;1.80;;;;;;;28.65;35.63;102446.44;6191306;23;20004;-85
2022/08/08 11:11:57;;;;;;;3.50;2.07;;;;;;;28.72;35.11;102448.06;6166002;23;20312;-85
2022/08/08 11:14:22;;;;;;;4.28;1.90;;;;;;;28.72;35.15;102443.28;6191356;23;20330;-85
2022/08/08 11:16:58;;;;;;;3.90;1.80;;;;;;;28.88;35.32;102443.91;6190290;23;20047;-85
2022/08/08 11:19:27;;;;;;;6.53;1.90;;;;;;;28.89;34.17;102445.53;6161935;23;20423;-86
2022/08/08 11:21:53;;;;;;;6.13;1.80;;;;;;;28.97;34.73;102439.28;6161259;23;20112;-86
2022/08/08 11:24:19;;;;;;;4.40;1.85;;;;;;;29.05;33.93;102437.78;6160861;23;20017;-85
2022/08/08 11:26:45;;;;;;;7.03;1.67;;;;;;;30.12;32.86;102444.59;6160595;23;20070;-85
2022/08/08 11:29:18;;;;;;;2.08;1.60;;;;;;;33.33;27.94;102431.06;6187488;23;20016;-85
2022/08/08 11:31:52;;;;;;;4.90;1.77;;;;;;;33.63;28.26;102423.50;6161826;23;20095;-85
2022/08/08 11:34:19;;;;;;;4.15;1.90;;;;;;;33.31;27.89;102422.97;6160658;23;20008;-85
2022/08/08 11:36:48;;;;;;;3.63;1.80;;;;;;;32.69;28.09;102426.94;6160778;23;20035;-85
2022/08/08 11:39:18;;;;;;;2.75;1.88;;;;;;;31.92;28.51;102423.53;6160681;23;20009;-85
2022/08/08 11:41:46;;;;;;;4.03;1.92;;;;;;;31.49;29.12;102427.75;6186996;23;20060;-85
2022/08/08 11:44:15;;;;;;;2.20;1.63;;;;;;;32.12;28.27;102422.97;6159393;23;20028;-85
2022/08/08 11:46:41;;;;;;;3.72;1.80;;;;;;;32.13;28.94;102427.47;6135515;23;20016;-85
2022/08/08 11:49:10;;;;;;;2.40;1.80;;;;;;;31.62;28.76;102423.25;6136081;23;20009;-85
2022/08/08 11:51:36;;;;;;;3.42;2.10;;;;;;;31.08;28.60;102417.63;6185163;23;20005;-85
2022/08/08 11:54:04;;;;;;;2.80;1.70;;;;;;;31.09;28.72;102419.25;6159725;23;20009;-85
2022/08/08 11:56:36;;;;;;;3.50;1.80;;;;;;;32.15;28.47;102421.50;6135216;23;20013;-85
2022/08/08 11:59:12;;;;;;;2.10;1.90;;;;;;;34.91;24.94;102417.84;6159577;23;20005;-86
2022/08/08 12:01:42;;;;;;;2.03;1.80;;;;;;;35.50;24.22;102410.31;6161233;23;20043;-85
2022/08/08 12:04:10;;;;;;;3.67;2.00;;;;;;;35.95;23.18;102409.44;6187620;23;20028;-86
2022/08/08 12:06:38;;;;;;;3.00;1.80;;;;;;;35.10;23.27;102416.53;6186492;23;20490;-89
2022/08/08 12:09:07;;;;;;;6.60;1.90;;;;;;;34.01;24.72;102408.66;6159378;23;20044;-86
2022/08/08 12:11:41;;;;;;;2.92;2.15;;;;;;;33.51;25.55;102406.50;6186740;23;20034;-86
2022/08/08 12:14:20;;;;;;;3.95;2.00;;;;;;;34.56;23.39;102400.38;6160048;23;20005;-85